createdAt,value
2022-09-16T00:00:38.382Z,20.80
2022-09-16T00:03:04.924Z,20.70
2022-09-16T00:05:31.410Z,20.80
2022-09-16T00:07:57.891Z,20.80
2022-09-16T00:10:24.377Z,20.80
2022-09-16T00:12:50.862Z,20.90
2022-09-16T00:15:17.327Z,20.70
2022-09-16T00:17:43.815Z,20.70
2022-09-16T00:20:10.290Z,20.80
2022-09-16T00:22:36.770Z,20.80
2022-09-16T00:25:03.255Z,20.80
2022-09-16T00:27:29.742Z,21.00
2022-09-16T00:29:56.214Z,20.90
2022-09-16T00:32:22.689Z,20.80
2022-09-16T00:34:49.183Z,21.00
2022-09-16T00:37:15.661Z,20.90
2022-09-16T00:39:42.147Z,20.90
2022-09-16T00:42:08.631Z,21.00
2022-09-16T00:44:35.109Z,21.00
2022-09-16T00:47:01.631Z,21.00
2022-09-16T00:49:28.149Z,20.80
2022-09-16T00:51:54.629Z,20.80
2022-09-16T00:54:21.121Z,20.90
2022-09-16T00:56:47.601Z,20.90
2022-09-16T00:59:14.087Z,20.90
2022-09-16T01:01:40.633Z,20.80
2022-09-16T01:04:07.124Z,21.00
2022-09-16T01:06:33.624Z,21.20
2022-09-16T01:11:44.206Z,20.90
2022-09-16T01:14:10.672Z,21.00
2022-09-16T01:16:37.206Z,21.00
2022-09-16T01:19:03.686Z,20.90
2022-09-16T01:21:30.157Z,20.80
2022-09-16T01:23:56.636Z,20.80
2022-09-16T01:26:23.097Z,20.90
2022-09-16T01:28:49.563Z,20.80
2022-09-16T01:31:16.058Z,21.00
2022-09-16T01:33:42.643Z,21.10
2022-09-16T01:36:09.114Z,21.00
2022-09-16T01:38:35.598Z,20.80
2022-09-16T01:41:02.060Z,21.00
2022-09-16T01:43:28.546Z,20.90
2022-09-16T01:45:55.006Z,20.90
2022-09-16T01:48:21.477Z,21.00
2022-09-16T01:50:47.944Z,21.00
2022-09-16T01:53:14.428Z,21.10
2022-09-16T01:55:40.907Z,20.90
2022-09-16T01:58:07.395Z,21.10
2022-09-16T02:00:33.871Z,21.00
2022-09-16T02:03:00.391Z,20.80
2022-09-16T02:05:26.883Z,20.80
2022-09-16T02:07:53.360Z,20.70
2022-09-16T02:10:19.823Z,20.90
2022-09-16T02:12:46.247Z,20.90
2022-09-16T02:15:12.727Z,20.80
2022-09-16T02:17:39.193Z,21.00
2022-09-16T02:20:05.659Z,20.90
2022-09-16T02:22:32.118Z,20.90
2022-09-16T02:24:58.598Z,20.70
2022-09-16T02:27:25.085Z,20.90
2022-09-16T02:29:51.561Z,20.80
2022-09-16T02:32:18.047Z,20.80
2022-09-16T02:34:44.504Z,20.80
2022-09-16T02:37:10.970Z,20.90
2022-09-16T02:39:37.435Z,20.80
2022-09-16T02:42:03.903Z,20.80
2022-09-16T02:44:30.380Z,20.80
2022-09-16T02:46:56.859Z,20.80
2022-09-16T02:49:23.324Z,20.70
2022-09-16T02:51:49.802Z,20.80
2022-09-16T02:54:16.285Z,20.80
2022-09-16T02:56:42.793Z,20.80
2022-09-16T02:59:09.270Z,20.80
2022-09-16T03:01:35.794Z,21.00
2022-09-16T03:04:02.327Z,21.00
2022-09-16T03:06:28.843Z,20.90
2022-09-16T03:08:55.373Z,20.80
2022-09-16T03:11:21.932Z,20.80
2022-09-16T03:13:48.408Z,20.90
2022-09-16T03:16:14.943Z,20.90
2022-09-16T03:18:41.450Z,20.80
2022-09-16T03:21:07.919Z,21.00
2022-09-16T03:23:34.404Z,21.00
2022-09-16T03:26:00.874Z,21.00
2022-09-16T03:28:27.362Z,21.00
2022-09-16T03:30:53.866Z,21.00
2022-09-16T03:33:20.368Z,21.00
2022-09-16T03:35:46.821Z,21.00
2022-09-16T03:38:13.287Z,21.10
2022-09-16T03:40:39.748Z,21.10
2022-09-16T03:43:06.226Z,21.10
2022-09-16T03:45:32.695Z,21.00
2022-09-16T03:47:59.168Z,21.00
2022-09-16T03:50:25.622Z,21.10
2022-09-16T03:52:52.100Z,21.10
2022-09-16T03:55:18.567Z,21.10
2022-09-16T03:57:45.039Z,21.20
2022-09-16T04:00:11.519Z,21.20
2022-09-16T04:02:38.063Z,21.10
2022-09-16T04:05:04.597Z,21.10
2022-09-16T04:07:31.076Z,21.10
2022-09-16T04:09:57.554Z,21.10
2022-09-16T04:12:24.060Z,21.00
2022-09-16T04:14:50.537Z,21.10
2022-09-16T04:17:17.065Z,21.20
2022-09-16T04:19:43.530Z,21.10
2022-09-16T04:22:09.990Z,21.10
2022-09-16T04:24:36.469Z,21.00
2022-09-16T04:27:02.948Z,21.00
2022-09-16T04:29:29.428Z,21.00
2022-09-16T04:31:55.897Z,21.10
2022-09-16T04:34:22.354Z,20.90
2022-09-16T04:36:48.822Z,20.90
2022-09-16T04:39:15.301Z,20.80
2022-09-16T04:41:41.778Z,20.80
2022-09-16T04:44:08.247Z,20.90
2022-09-16T04:46:34.783Z,21.00
2022-09-16T04:49:01.319Z,20.90
2022-09-16T04:51:27.797Z,20.90
2022-09-16T04:53:54.395Z,21.00
2022-09-16T04:56:20.918Z,20.90
2022-09-16T04:58:47.412Z,21.00
2022-09-16T05:01:13.962Z,20.90
2022-09-16T05:03:40.519Z,20.90
2022-09-16T05:06:07.061Z,20.90
2022-09-16T05:08:33.552Z,21.00
2022-09-16T05:11:00.032Z,21.00
2022-09-16T05:13:26.527Z,21.10
2022-09-16T05:15:53.021Z,21.10
2022-09-16T05:18:19.532Z,21.10
2022-09-16T05:20:46.000Z,21.00
2022-09-16T05:23:12.479Z,21.10
2022-09-16T05:25:38.957Z,21.00
2022-09-16T05:28:05.435Z,21.00
2022-09-16T05:30:31.970Z,21.00
2022-09-16T05:32:58.454Z,21.10
2022-09-16T05:35:24.927Z,21.00
2022-09-16T05:37:51.386Z,21.00
2022-09-16T05:40:17.905Z,21.00
2022-09-16T05:42:44.397Z,21.00
2022-09-16T05:45:10.873Z,21.10
2022-09-16T05:47:37.331Z,21.10
2022-09-16T05:50:03.812Z,21.00
2022-09-16T05:52:30.270Z,21.00
2022-09-16T05:54:56.741Z,21.00
2022-09-16T05:57:23.207Z,21.00
2022-09-16T05:59:49.696Z,21.00
2022-09-16T06:02:16.204Z,20.90
2022-09-16T06:04:42.728Z,21.00
2022-09-16T06:07:09.189Z,21.00
2022-09-16T06:09:35.650Z,21.00
2022-09-16T06:12:02.507Z,21.00
2022-09-16T06:14:29.037Z,20.90
2022-09-16T06:16:55.517Z,20.80
2022-09-16T06:19:22.014Z,20.80
2022-09-16T06:21:48.479Z,20.60
2022-09-16T06:24:14.953Z,20.60
2022-09-16T06:26:41.431Z,20.60
2022-09-16T06:29:07.900Z,20.60
2022-09-16T06:31:34.381Z,20.50
2022-09-16T06:34:00.854Z,20.50
2022-09-16T06:36:27.341Z,20.70
2022-09-16T06:38:53.795Z,20.80
2022-09-16T06:41:20.266Z,20.90
2022-09-16T06:43:46.738Z,21.00
2022-09-16T06:46:13.281Z,20.90
2022-09-16T06:48:39.834Z,20.80
2022-09-16T06:51:06.307Z,20.80
2022-09-16T06:53:32.799Z,20.50
2022-09-16T06:55:59.275Z,20.70
2022-09-16T06:58:25.745Z,20.70
2022-09-16T07:00:52.253Z,20.50
2022-09-16T07:03:18.790Z,20.50
2022-09-16T07:05:45.277Z,20.60
2022-09-16T07:08:11.752Z,20.50
2022-09-16T07:10:38.251Z,20.50
2022-09-16T07:13:04.719Z,20.60
2022-09-16T07:15:31.198Z,20.50
2022-09-16T07:17:57.665Z,20.40
2022-09-16T07:20:24.152Z,20.60
2022-09-16T07:22:50.621Z,20.60
2022-09-16T07:25:17.120Z,20.60
2022-09-16T07:27:43.592Z,20.40
2022-09-16T07:30:10.080Z,20.40
2022-09-16T07:32:36.558Z,20.60
2022-09-16T07:35:03.249Z,20.50
2022-09-16T07:37:29.707Z,20.50
2022-09-16T07:39:56.190Z,20.40
2022-09-16T07:42:22.697Z,20.40
2022-09-16T07:44:49.188Z,20.40
2022-09-16T07:47:20.064Z,20.40
2022-09-16T07:49:48.504Z,20.40
2022-09-16T07:52:15.009Z,20.50
2022-09-16T07:54:41.487Z,20.50
2022-09-16T07:57:07.961Z,20.40
2022-09-16T07:59:34.433Z,20.40
2022-09-16T08:02:01.021Z,20.50
2022-09-16T08:04:27.567Z,20.40
2022-09-16T08:06:54.052Z,20.50
2022-09-16T08:09:38.743Z,20.50
2022-09-16T08:12:07.106Z,20.50
2022-09-16T08:14:33.589Z,20.40
2022-09-16T08:17:00.124Z,20.50
2022-09-16T08:19:26.633Z,20.50
2022-09-16T08:21:53.109Z,20.40
2022-09-16T08:24:19.603Z,20.50
2022-09-16T08:26:46.115Z,20.60
2022-09-16T08:29:12.886Z,20.50
2022-09-16T08:31:39.619Z,20.40
2022-09-16T08:34:06.234Z,20.60
2022-09-16T08:36:32.743Z,20.60
2022-09-16T08:38:59.216Z,20.50
2022-09-16T08:41:25.688Z,20.70
2022-09-16T08:43:52.168Z,20.60
2022-09-16T08:46:18.663Z,20.60
2022-09-16T08:48:45.156Z,20.40
2022-09-16T08:51:11.624Z,20.50
2022-09-16T08:53:38.083Z,20.40
2022-09-16T08:56:04.543Z,20.40
2022-09-16T08:58:31.011Z,20.60
2022-09-16T09:00:57.545Z,20.60
2022-09-16T09:03:24.049Z,20.40
2022-09-16T09:05:50.522Z,20.50
2022-09-16T09:08:16.998Z,20.50
2022-09-16T09:10:43.493Z,20.60
2022-09-16T09:13:11.121Z,20.60
2022-09-16T09:15:38.172Z,20.60
2022-09-16T09:18:04.631Z,20.70
2022-09-16T09:20:31.095Z,20.60
2022-09-16T09:22:57.560Z,20.60
2022-09-16T09:25:24.045Z,20.60
2022-09-16T09:27:50.516Z,20.60
2022-09-16T09:30:16.981Z,20.60
2022-09-16T09:32:53.949Z,20.50
2022-09-16T09:35:20.457Z,20.40
2022-09-16T09:37:46.921Z,20.40
2022-09-16T09:40:13.447Z,20.40
2022-09-16T09:42:39.971Z,20.40
2022-09-16T09:45:06.459Z,20.40
2022-09-16T09:47:32.966Z,20.40
2022-09-16T09:49:59.441Z,20.30
2022-09-16T09:52:25.915Z,20.40
2022-09-16T09:54:52.392Z,20.50
2022-09-16T09:57:18.862Z,20.40
2022-09-16T09:59:45.331Z,20.40
2022-09-16T10:02:11.843Z,20.60
2022-09-16T10:04:38.317Z,20.60
2022-09-16T10:07:04.796Z,20.60
2022-09-16T10:09:31.265Z,20.70
2022-09-16T10:11:57.729Z,20.60
2022-09-16T10:14:24.201Z,20.60
2022-09-16T10:16:50.664Z,20.50
2022-09-16T10:19:17.137Z,20.40
2022-09-16T10:21:43.598Z,20.50
2022-09-16T10:24:10.066Z,20.60
2022-09-16T10:26:36.565Z,20.50
2022-09-16T10:29:03.036Z,20.40
2022-09-16T10:31:33.516Z,20.50
2022-09-16T10:34:01.070Z,20.50
2022-09-16T10:36:27.573Z,20.40
2022-09-16T10:38:54.049Z,20.30
2022-09-16T10:41:20.544Z,20.30
2022-09-16T10:43:48.102Z,20.30
2022-09-16T10:46:14.667Z,20.40
2022-09-16T10:48:41.174Z,20.30
2022-09-16T10:51:07.655Z,20.30
2022-09-16T10:53:39.085Z,20.60
2022-09-16T10:56:07.597Z,20.70
2022-09-16T10:58:34.282Z,20.90
2022-09-16T11:01:01.067Z,20.80
2022-09-16T11:03:27.647Z,20.70
2022-09-16T11:05:54.138Z,20.80
2022-09-16T11:08:20.609Z,20.70
2022-09-16T11:10:47.093Z,20.60
2022-09-16T11:13:13.567Z,20.40
2022-09-16T11:15:40.069Z,20.40
2022-09-16T11:18:06.547Z,20.40
2022-09-16T11:20:33.022Z,20.60
2022-09-16T11:22:59.507Z,20.60
2022-09-16T11:25:25.977Z,20.70
2022-09-16T11:27:52.444Z,20.70
2022-09-16T11:30:19.152Z,20.70
2022-09-16T11:32:45.702Z,20.60
2022-09-16T11:35:12.228Z,20.60
2022-09-16T11:37:38.692Z,20.60
2022-09-16T11:40:05.257Z,20.60
2022-09-16T11:42:31.755Z,20.70
2022-09-16T11:44:58.210Z,20.60
2022-09-16T11:47:24.687Z,20.60
2022-09-16T11:49:51.172Z,20.60
2022-09-16T11:52:17.744Z,20.60
2022-09-16T11:54:44.204Z,20.60
2022-09-16T11:57:13.198Z,20.60
2022-09-16T11:59:41.518Z,20.60
2022-09-16T12:02:08.246Z,20.50
2022-09-16T12:04:37.623Z,20.40
2022-09-16T12:07:04.899Z,20.50
2022-09-16T12:09:31.364Z,20.50
2022-09-16T12:11:57.833Z,20.50
2022-09-16T12:14:24.319Z,20.40
2022-09-16T12:16:50.801Z,20.30
2022-09-16T12:19:17.279Z,20.30
2022-09-16T12:21:43.767Z,20.30
2022-09-16T12:24:10.232Z,20.30
2022-09-16T12:26:36.752Z,20.40
2022-09-16T12:29:03.224Z,20.40
2022-09-16T12:31:29.742Z,20.40
2022-09-16T12:33:56.259Z,20.30
2022-09-16T12:36:23.895Z,20.20
2022-09-16T12:38:50.533Z,20.40
2022-09-16T12:41:17.047Z,20.40
2022-09-16T12:43:43.514Z,20.60
2022-09-16T12:46:10.043Z,20.60
2022-09-16T12:48:36.554Z,20.70
2022-09-16T12:51:03.047Z,20.90
2022-09-16T12:53:29.531Z,20.90
2022-09-16T12:55:56.021Z,21.00
2022-09-16T12:58:22.494Z,21.00
2022-09-16T13:00:48.969Z,21.00
2022-09-16T13:03:15.454Z,21.10
2022-09-16T13:05:41.943Z,21.00
2022-09-16T13:08:08.415Z,21.00
2022-09-16T13:10:54.470Z,21.10
2022-09-16T13:13:21.382Z,21.00
2022-09-16T13:15:47.933Z,21.00
2022-09-16T13:18:14.489Z,21.00
2022-09-16T13:20:40.999Z,21.00
2022-09-16T13:23:07.463Z,21.00
2022-09-16T13:25:33.967Z,21.00
2022-09-16T13:28:00.448Z,21.10
2022-09-16T13:30:26.947Z,21.00
2022-09-16T13:32:53.416Z,21.00
2022-09-16T13:35:19.924Z,21.00
2022-09-16T13:37:46.418Z,20.90
2022-09-16T13:40:12.923Z,21.00
2022-09-16T13:42:39.434Z,21.00
2022-09-16T13:45:05.909Z,20.90
2022-09-16T13:47:32.385Z,20.80
2022-09-16T13:49:58.858Z,20.80
2022-09-16T13:52:25.341Z,20.80
2022-09-16T13:57:38.287Z,20.80
2022-09-16T14:00:04.752Z,20.80
2022-09-16T14:02:31.336Z,20.90
2022-09-16T14:04:57.867Z,20.90
2022-09-16T14:07:24.355Z,20.80
2022-09-16T14:09:54.772Z,20.90
2022-09-16T14:12:21.705Z,20.90
2022-09-16T14:14:48.453Z,20.80
2022-09-16T14:17:15.093Z,20.90
2022-09-16T14:19:41.580Z,20.90
2022-09-16T14:22:08.052Z,20.80
2022-09-16T14:24:34.529Z,20.80
2022-09-16T14:27:00.993Z,20.80
2022-09-16T14:29:27.487Z,20.70
2022-09-16T14:31:53.959Z,20.80
2022-09-16T14:34:20.424Z,20.70
2022-09-16T14:36:46.894Z,20.70
2022-09-16T14:39:13.362Z,20.70
2022-09-16T14:41:39.844Z,20.80
2022-09-16T14:44:06.302Z,20.80
2022-09-16T14:46:32.786Z,20.80
2022-09-16T14:48:59.243Z,21.00
2022-09-16T14:51:25.705Z,21.00
2022-09-16T14:54:11.639Z,21.10
2022-09-16T14:56:38.660Z,21.00
2022-09-16T14:59:05.142Z,20.90
2022-09-16T15:01:31.676Z,20.90
2022-09-16T15:03:58.193Z,20.90
2022-09-16T15:06:24.661Z,21.10
2022-09-16T15:08:51.148Z,21.00
2022-09-16T15:11:36.227Z,21.00
2022-09-16T15:14:04.106Z,21.00
2022-09-16T15:16:30.596Z,21.00
2022-09-16T15:18:57.100Z,21.00
2022-09-16T15:21:23.585Z,21.00
2022-09-16T15:23:50.066Z,20.90
2022-09-16T15:26:16.551Z,20.80
2022-09-16T15:28:43.022Z,20.80
2022-09-16T15:31:09.550Z,20.70
2022-09-16T15:33:36.056Z,20.80
2022-09-16T15:36:02.530Z,20.70
2022-09-16T15:38:28.983Z,20.60
2022-09-16T15:40:55.453Z,20.50
2022-09-16T15:43:21.945Z,20.60
2022-09-16T15:45:48.421Z,20.60
2022-09-16T15:48:14.904Z,20.60
2022-09-16T15:50:41.375Z,20.60
2022-09-16T15:53:07.862Z,20.60
2022-09-16T15:55:34.333Z,20.70
2022-09-16T15:58:00.817Z,20.80
2022-09-16T16:00:27.298Z,20.80
2022-09-16T16:02:53.855Z,20.70
2022-09-16T16:05:20.380Z,20.50
2022-09-16T16:07:46.866Z,20.40
2022-09-16T16:10:13.367Z,20.40
2022-09-16T16:12:39.846Z,20.50
2022-09-16T16:15:06.308Z,20.60
2022-09-16T16:17:32.822Z,20.80
2022-09-16T16:19:59.302Z,20.90
2022-09-16T16:22:26.078Z,20.80
2022-09-16T16:24:52.957Z,20.90
2022-09-16T16:27:19.437Z,21.00
2022-09-16T16:29:45.924Z,21.10
2022-09-16T16:32:12.397Z,21.00
2022-09-16T16:34:38.882Z,21.00
2022-09-16T16:37:05.366Z,20.90
2022-09-16T16:39:31.842Z,20.70
2022-09-16T16:41:58.313Z,20.60
2022-09-16T16:44:24.785Z,20.70
2022-09-16T16:46:51.271Z,20.80
2022-09-16T16:49:17.732Z,20.60
2022-09-16T16:51:44.217Z,20.50
2022-09-16T16:54:10.684Z,20.40
2022-09-16T16:56:37.169Z,20.50
2022-09-16T16:59:03.655Z,20.50
2022-09-16T17:01:30.184Z,20.40
2022-09-16T17:03:56.667Z,20.50
2022-09-16T17:06:23.140Z,20.60
2022-09-16T17:08:49.615Z,20.70
2022-09-16T17:11:16.090Z,20.70
2022-09-16T17:13:42.538Z,20.80
2022-09-16T17:16:09.053Z,20.80
2022-09-16T17:18:35.594Z,20.90
2022-09-16T17:21:02.098Z,20.90
2022-09-16T17:23:28.579Z,20.90
2022-09-16T17:25:55.087Z,21.00
2022-09-16T17:28:21.561Z,21.00
2022-09-16T17:30:48.096Z,21.00
2022-09-16T17:33:14.602Z,20.80
2022-09-16T17:35:41.098Z,20.90
2022-09-16T17:38:07.574Z,21.10
2022-09-16T17:40:34.110Z,20.90
2022-09-16T17:43:00.625Z,21.00
2022-09-16T17:45:27.128Z,20.90
2022-09-16T17:47:53.606Z,20.90
2022-09-16T17:50:22.973Z,20.90
2022-09-16T17:52:49.702Z,20.80
2022-09-16T17:55:16.186Z,20.80
2022-09-16T17:57:42.665Z,20.80
2022-09-16T18:00:09.148Z,20.70
2022-09-16T18:02:35.675Z,20.70
2022-09-16T18:05:02.286Z,20.70
2022-09-16T18:07:28.819Z,20.80
2022-09-16T18:09:55.311Z,20.70
2022-09-16T18:12:21.775Z,20.60
2022-09-16T18:14:48.255Z,20.50
2022-09-16T18:17:14.754Z,20.60
2022-09-16T18:19:41.268Z,20.70
2022-09-16T18:22:07.730Z,20.60
2022-09-16T18:24:34.214Z,20.70
2022-09-16T18:27:02.575Z,20.70
2022-09-16T18:29:29.142Z,20.80
2022-09-16T18:31:55.623Z,20.80
2022-09-16T18:34:22.106Z,20.70
2022-09-16T18:36:48.578Z,20.50
2022-09-16T18:39:15.065Z,20.50
2022-09-16T18:41:41.546Z,20.40
2022-09-16T18:44:08.114Z,20.50
2022-09-16T18:46:34.655Z,20.50
2022-09-16T18:49:01.201Z,20.50
2022-09-16T18:51:27.671Z,20.30
2022-09-16T18:53:54.132Z,20.30
2022-09-16T18:56:20.595Z,20.40
2022-09-16T18:59:09.661Z,20.40
2022-09-16T19:01:33.680Z,20.40
2022-09-16T19:04:00.225Z,20.40
2022-09-16T19:06:26.693Z,20.40
2022-09-16T19:08:53.172Z,20.40
2022-09-16T19:11:19.649Z,20.40
2022-09-16T19:13:46.136Z,20.30
2022-09-16T19:16:12.607Z,20.20
2022-09-16T19:18:39.087Z,20.20
2022-09-16T19:21:05.586Z,20.20
2022-09-16T19:23:32.073Z,20.20
2022-09-16T19:25:58.549Z,20.20
2022-09-16T19:28:25.027Z,20.20
2022-09-16T19:30:51.491Z,20.20
2022-09-16T19:33:17.965Z,20.20
2022-09-16T19:35:44.447Z,20.10
2022-09-16T19:38:10.923Z,20.20
2022-09-16T19:40:37.452Z,20.10
2022-09-16T19:43:03.954Z,20.10
2022-09-16T19:45:30.414Z,20.00
2022-09-16T19:47:56.895Z,20.20
2022-09-16T19:50:23.359Z,20.30
2022-09-16T19:52:49.827Z,20.40
2022-09-16T19:55:16.293Z,20.20
2022-09-16T19:57:42.754Z,20.20
2022-09-16T20:00:09.211Z,20.10
2022-09-16T20:02:35.721Z,20.20
2022-09-16T20:05:04.868Z,20.20
2022-09-16T20:07:32.610Z,20.20
2022-09-16T20:09:59.080Z,20.10
2022-09-16T20:12:25.543Z,20.10
2022-09-16T20:14:52.002Z,20.20
2022-09-16T20:17:18.483Z,20.20
2022-09-16T20:19:44.966Z,20.10
2022-09-16T20:22:11.436Z,20.00
2022-09-16T20:24:37.897Z,19.90
2022-09-16T20:27:04.379Z,20.00
2022-09-16T20:29:30.837Z,19.90
2022-09-16T20:31:57.383Z,20.00
2022-09-16T20:34:23.917Z,19.90
2022-09-16T20:36:50.386Z,19.80
2022-09-16T20:39:16.837Z,19.90
2022-09-16T20:41:43.318Z,19.90
2022-09-16T20:44:09.778Z,19.90
2022-09-16T20:46:36.267Z,19.90
2022-09-16T20:49:02.754Z,20.00
2022-09-16T20:51:29.238Z,20.00
2022-09-16T20:53:55.709Z,19.90
2022-09-16T20:56:22.186Z,19.90
2022-09-16T20:58:48.667Z,20.00
2022-09-16T21:01:15.267Z,19.90
2022-09-16T21:03:41.785Z,19.90
2022-09-16T21:06:08.243Z,19.90
2022-09-16T21:08:34.715Z,19.90
2022-09-16T21:11:01.198Z,19.90
2022-09-16T21:13:27.671Z,19.90
2022-09-16T21:15:54.259Z,20.00
2022-09-16T21:18:20.714Z,19.90
2022-09-16T21:20:47.177Z,19.90
2022-09-16T21:23:13.671Z,19.90
2022-09-16T21:25:40.152Z,19.90
2022-09-16T21:28:06.640Z,19.90
2022-09-16T21:30:33.119Z,19.80
2022-09-16T21:32:59.609Z,19.90
2022-09-16T21:35:26.095Z,19.90
2022-09-16T21:37:52.571Z,19.90
2022-09-16T21:40:19.092Z,20.00
2022-09-16T21:42:45.593Z,19.90
2022-09-16T21:45:12.063Z,19.90
2022-09-16T21:47:38.535Z,19.90
2022-09-16T21:50:04.990Z,19.90
2022-09-16T21:52:31.465Z,19.80
2022-09-16T21:54:57.944Z,19.70
2022-09-16T21:57:24.416Z,19.80
2022-09-16T21:59:50.879Z,19.80
2022-09-16T22:02:17.387Z,19.90
2022-09-16T22:04:43.862Z,19.90
2022-09-16T22:07:10.331Z,19.80
2022-09-16T22:09:36.810Z,19.80
2022-09-16T22:12:03.307Z,19.80
2022-09-16T22:14:29.790Z,19.90
2022-09-16T22:16:56.271Z,19.80
2022-09-16T22:19:22.731Z,19.70
2022-09-16T22:21:49.215Z,19.80
2022-09-16T22:24:15.686Z,19.80
2022-09-16T22:26:42.168Z,19.80
2022-09-16T22:29:08.647Z,19.70
2022-09-16T22:31:35.206Z,19.70
2022-09-16T22:34:01.727Z,19.70
2022-09-16T22:36:28.196Z,19.70
2022-09-16T22:38:54.671Z,19.70
2022-09-16T22:41:21.144Z,19.60
2022-09-16T22:43:47.628Z,19.70
2022-09-16T22:46:14.118Z,19.70
2022-09-16T22:48:40.606Z,19.70
2022-09-16T22:51:07.067Z,19.70
2022-09-16T22:53:33.534Z,19.60
2022-09-16T22:55:59.997Z,19.70
2022-09-16T22:58:26.473Z,19.70
2022-09-16T23:00:52.953Z,19.60
2022-09-16T23:03:19.440Z,19.60
2022-09-16T23:05:45.906Z,19.80
2022-09-16T23:08:12.407Z,19.70
2022-09-16T23:10:38.886Z,19.70
2022-09-16T23:13:05.380Z,19.70
2022-09-16T23:15:31.852Z,19.80
2022-09-16T23:17:58.344Z,19.80
2022-09-16T23:20:24.807Z,19.80
2022-09-16T23:22:51.320Z,19.80
2022-09-16T23:25:17.784Z,19.80
2022-09-16T23:27:44.287Z,20.00
2022-09-16T23:30:10.765Z,20.00
2022-09-16T23:32:37.243Z,20.00
2022-09-16T23:35:03.707Z,20.00
2022-09-16T23:37:30.184Z,20.00
2022-09-16T23:39:56.700Z,20.00
2022-09-16T23:42:23.241Z,20.00
2022-09-16T23:44:49.704Z,20.00
2022-09-16T23:47:16.191Z,19.90
2022-09-16T23:49:42.654Z,19.90
2022-09-16T23:52:09.150Z,19.90
2022-09-16T23:54:35.631Z,20.00
2022-09-16T23:57:02.125Z,20.00
2022-09-16T23:59:28.582Z,19.90
